sensor_id;sensor_type;location;lat;lon;timestamp;P1;durP1;ratioP1;P2;durP2;ratioP2
47625;SDS011;33342;45.574;9.252;2023-03-23T00:00:12;12.57;;;8.95;;
47625;SDS011;33342;45.574;9.252;2023-03-23T00:02:39;13.88;;;9.45;;
47625;SDS011;33342;45.574;9.252;2023-03-23T00:05:05;15.45;;;9.75;;
47625;SDS011;33342;45.574;9.252;2023-03-23T00:07:34;12.10;;;9.38;;
47625;SDS011;33342;45.574;9.252;2023-03-23T00:10:00;12.80;;;7.85;;
47625;SDS011;33342;45.574;9.252;2023-03-23T00:12:29;15.52;;;10.55;;
47625;SDS011;33342;45.574;9.252;2023-03-23T00:15:03;13.02;;;9.70;;
47625;SDS011;33342;45.574;9.252;2023-03-23T00:17:30;13.25;;;9.98;;
47625;SDS011;33342;45.574;9.252;2023-03-23T00:20:00;14.18;;;10.55;;
47625;SDS011;33342;45.574;9.252;2023-03-23T00:22:29;15.98;;;11.75;;
47625;SDS011;33342;45.574;9.252;2023-03-23T00:24:55;13.25;;;10.10;;
47625;SDS011;33342;45.574;9.252;2023-03-23T00:27:22;17.33;;;11.05;;
47625;SDS011;33342;45.574;9.252;2023-03-23T00:29:49;12.88;;;10.05;;
47625;SDS011;33342;45.574;9.252;2023-03-23T00:32:19;14.18;;;9.32;;
47625;SDS011;33342;45.574;9.252;2023-03-23T00:34:53;14.05;;;9.48;;
47625;SDS011;33342;45.574;9.252;2023-03-23T00:37:21;11.25;;;9.13;;
47625;SDS011;33342;45.574;9.252;2023-03-23T00:39:48;11.23;;;7.40;;
47625;SDS011;33342;45.574;9.252;2023-03-23T00:42:14;12.38;;;7.30;;
47625;SDS011;33342;45.574;9.252;2023-03-23T00:44:41;10.95;;;7.30;;
47625;SDS011;33342;45.574;9.252;2023-03-23T00:47:09;10.60;;;6.93;;
47625;SDS011;33342;45.574;9.252;2023-03-23T00:49:37;13.27;;;6.43;;
47625;SDS011;33342;45.574;9.252;2023-03-23T00:52:04;11.13;;;6.80;;
47625;SDS011;33342;45.574;9.252;2023-03-23T00:54:31;12.98;;;9.90;;
47625;SDS011;33342;45.574;9.252;2023-03-23T00:56:59;14.55;;;12.13;;
47625;SDS011;33342;45.574;9.252;2023-03-23T00:59:25;18.05;;;11.60;;
47625;SDS011;33342;45.574;9.252;2023-03-23T01:01:51;14.20;;;10.40;;
47625;SDS011;33342;45.574;9.252;2023-03-23T01:04:18;14.05;;;9.60;;
47625;SDS011;33342;45.574;9.252;2023-03-23T01:06:50;12.93;;;10.48;;
47625;SDS011;33342;45.574;9.252;2023-03-23T01:09:17;14.55;;;10.38;;
47625;SDS011;33342;45.574;9.252;2023-03-23T01:11:47;14.82;;;7.47;;
47625;SDS011;33342;45.574;9.252;2023-03-23T01:14:17;14.10;;;7.10;;
47625;SDS011;33342;45.574;9.252;2023-03-23T01:16:44;11.27;;;7.30;;
47625;SDS011;33342;45.574;9.252;2023-03-23T01:19:10;14.27;;;8.82;;
47625;SDS011;33342;45.574;9.252;2023-03-23T01:21:36;14.32;;;9.00;;
47625;SDS011;33342;45.574;9.252;2023-03-23T01:24:02;14.13;;;10.30;;
47625;SDS011;33342;45.574;9.252;2023-03-23T01:26:28;14.52;;;10.38;;
47625;SDS011;33342;45.574;9.252;2023-03-23T01:28:55;13.48;;;11.43;;
47625;SDS011;33342;45.574;9.252;2023-03-23T01:31:22;12.98;;;8.82;;
47625;SDS011;33342;45.574;9.252;2023-03-23T01:33:51;12.85;;;11.30;;
47625;SDS011;33342;45.574;9.252;2023-03-23T01:36:19;15.02;;;9.35;;
47625;SDS011;33342;45.574;9.252;2023-03-23T01:38:47;11.90;;;7.32;;
47625;SDS011;33342;45.574;9.252;2023-03-23T01:41:15;13.27;;;9.45;;
47625;SDS011;33342;45.574;9.252;2023-03-23T01:44:02;12.63;;;9.10;;
47625;SDS011;33342;45.574;9.252;2023-03-23T01:46:36;13.70;;;8.98;;
47625;SDS011;33342;45.574;9.252;2023-03-23T01:49:06;10.95;;;6.63;;
47625;SDS011;33342;45.574;9.252;2023-03-23T01:51:36;12.32;;;9.90;;
47625;SDS011;33342;45.574;9.252;2023-03-23T01:54:07;10.25;;;6.28;;
47625;SDS011;33342;45.574;9.252;2023-03-23T01:56:39;11.02;;;5.72;;
47625;SDS011;33342;45.574;9.252;2023-03-23T01:59:11;10.70;;;7.75;;
47625;SDS011;33342;45.574;9.252;2023-03-23T02:01:43;11.75;;;8.98;;
47625;SDS011;33342;45.574;9.252;2023-03-23T02:04:12;11.90;;;8.73;;
47625;SDS011;33342;45.574;9.252;2023-03-23T02:06:42;12.73;;;8.52;;
47625;SDS011;33342;45.574;9.252;2023-03-23T02:09:17;23.27;;;16.87;;
47625;SDS011;33342;45.574;9.252;2023-03-23T02:11:45;17.63;;;11.15;;
47625;SDS011;33342;45.574;9.252;2023-03-23T02:14:15;16.10;;;13.82;;
47625;SDS011;33342;45.574;9.252;2023-03-23T02:25:06;11.90;;;8.10;;
47625;SDS011;33342;45.574;9.252;2023-03-23T02:28:00;11.27;;;6.72;;
47625;SDS011;33342;45.574;9.252;2023-03-23T02:38:57;15.15;;;10.23;;
47625;SDS011;33342;45.574;9.252;2023-03-23T02:41:30;15.23;;;7.65;;
47625;SDS011;33342;45.574;9.252;2023-03-23T02:44:02;13.35;;;10.25;;
47625;SDS011;33342;45.574;9.252;2023-03-23T02:46:29;14.40;;;8.40;;
47625;SDS011;33342;45.574;9.252;2023-03-23T02:48:55;11.98;;;7.85;;
47625;SDS011;33342;45.574;9.252;2023-03-23T02:51:24;15.20;;;8.02;;
47625;SDS011;33342;45.574;9.252;2023-03-23T02:53:51;14.00;;;9.65;;
47625;SDS011;33342;45.574;9.252;2023-03-23T02:56:20;12.30;;;7.75;;
47625;SDS011;33342;45.574;9.252;2023-03-23T02:58:48;12.70;;;7.55;;
47625;SDS011;33342;45.574;9.252;2023-03-23T03:04:05;13.65;;;8.73;;
47625;SDS011;33342;45.574;9.252;2023-03-23T03:06:49;13.85;;;7.85;;
47625;SDS011;33342;45.574;9.252;2023-03-23T03:09:40;14.90;;;11.50;;
47625;SDS011;33342;45.574;9.252;2023-03-23T03:15:01;13.77;;;8.65;;
47625;SDS011;33342;45.574;9.252;2023-03-23T03:17:30;13.77;;;10.27;;
47625;SDS011;33342;45.574;9.252;2023-03-23T03:20:01;12.38;;;9.75;;
47625;SDS011;33342;45.574;9.252;2023-03-23T03:22:32;13.80;;;10.60;;
47625;SDS011;33342;45.574;9.252;2023-03-23T03:25:02;12.52;;;8.07;;
47625;SDS011;33342;45.574;9.252;2023-03-23T03:27:29;15.85;;;8.57;;
47625;SDS011;33342;45.574;9.252;2023-03-23T03:30:21;16.20;;;11.32;;
47625;SDS011;33342;45.574;9.252;2023-03-23T03:32:52;14.70;;;8.88;;
47625;SDS011;33342;45.574;9.252;2023-03-23T03:35:21;17.00;;;11.55;;
47625;SDS011;33342;45.574;9.252;2023-03-23T03:37:49;15.13;;;10.88;;
47625;SDS011;33342;45.574;9.252;2023-03-23T03:40:17;15.55;;;10.93;;
47625;SDS011;33342;45.574;9.252;2023-03-23T03:42:45;15.52;;;8.60;;
47625;SDS011;33342;45.574;9.252;2023-03-23T03:45:15;16.85;;;10.90;;
47625;SDS011;33342;45.574;9.252;2023-03-23T03:47:43;14.77;;;10.82;;
47625;SDS011;33342;45.574;9.252;2023-03-23T03:50:10;17.67;;;9.30;;
47625;SDS011;33342;45.574;9.252;2023-03-23T03:52:37;19.73;;;9.25;;
47625;SDS011;33342;45.574;9.252;2023-03-23T03:55:05;19.58;;;9.40;;
47625;SDS011;33342;45.574;9.252;2023-03-23T03:57:33;18.77;;;12.65;;
47625;SDS011;33342;45.574;9.252;2023-03-23T04:00:03;15.77;;;9.23;;
47625;SDS011;33342;45.574;9.252;2023-03-23T04:02:40;16.98;;;11.73;;
47625;SDS011;33342;45.574;9.252;2023-03-23T04:05:08;16.17;;;8.80;;
47625;SDS011;33342;45.574;9.252;2023-03-23T04:07:36;14.18;;;8.95;;
47625;SDS011;33342;45.574;9.252;2023-03-23T04:10:05;17.77;;;13.02;;
47625;SDS011;33342;45.574;9.252;2023-03-23T04:12:33;19.67;;;12.60;;
47625;SDS011;33342;45.574;9.252;2023-03-23T04:15:29;14.70;;;10.07;;
47625;SDS011;33342;45.574;9.252;2023-03-23T04:17:55;14.85;;;9.13;;
47625;SDS011;33342;45.574;9.252;2023-03-23T04:20:23;20.52;;;13.43;;
47625;SDS011;33342;45.574;9.252;2023-03-23T04:22:50;17.50;;;13.27;;
47625;SDS011;33342;45.574;9.252;2023-03-23T04:25:21;18.90;;;10.73;;
47625;SDS011;33342;45.574;9.252;2023-03-23T04:27:49;18.27;;;14.13;;
47625;SDS011;33342;45.574;9.252;2023-03-23T04:30:21;16.80;;;10.25;;
47625;SDS011;33342;45.574;9.252;2023-03-23T04:33:08;18.30;;;9.90;;
47625;SDS011;33342;45.574;9.252;2023-03-23T04:35:40;20.17;;;11.13;;
47625;SDS011;33342;45.574;9.252;2023-03-23T04:38:31;16.48;;;11.90;;
47625;SDS011;33342;45.574;9.252;2023-03-23T04:41:04;15.65;;;9.48;;
47625;SDS011;33342;45.574;9.252;2023-03-23T04:43:39;13.30;;;8.98;;
47625;SDS011;33342;45.574;9.252;2023-03-23T04:46:29;14.60;;;9.05;;
47625;SDS011;33342;45.574;9.252;2023-03-23T04:48:59;16.90;;;10.30;;
47625;SDS011;33342;45.574;9.252;2023-03-23T04:51:31;15.43;;;9.30;;
47625;SDS011;33342;45.574;9.252;2023-03-23T04:54:08;18.10;;;9.48;;
47625;SDS011;33342;45.574;9.252;2023-03-23T04:56:35;16.33;;;9.25;;
47625;SDS011;33342;45.574;9.252;2023-03-23T04:59:07;17.17;;;9.73;;
47625;SDS011;33342;45.574;9.252;2023-03-23T05:01:38;13.52;;;11.35;;
47625;SDS011;33342;45.574;9.252;2023-03-23T05:04:19;15.15;;;10.73;;
47625;SDS011;33342;45.574;9.252;2023-03-23T05:06:56;13.68;;;8.13;;
47625;SDS011;33342;45.574;9.252;2023-03-23T05:09:26;15.30;;;7.15;;
47625;SDS011;33342;45.574;9.252;2023-03-23T05:11:53;15.48;;;9.88;;
47625;SDS011;33342;45.574;9.252;2023-03-23T05:14:19;13.43;;;8.18;;
47625;SDS011;33342;45.574;9.252;2023-03-23T05:16:57;13.10;;;9.80;;
47625;SDS011;33342;45.574;9.252;2023-03-23T05:19:24;13.70;;;10.68;;
47625;SDS011;33342;45.574;9.252;2023-03-23T05:21:53;11.75;;;7.68;;
47625;SDS011;33342;45.574;9.252;2023-03-23T05:24:21;14.23;;;8.25;;
47625;SDS011;33342;45.574;9.252;2023-03-23T05:26:50;12.30;;;7.55;;
47625;SDS011;33342;45.574;9.252;2023-03-23T05:29:21;14.10;;;7.25;;
47625;SDS011;33342;45.574;9.252;2023-03-23T05:31:56;10.02;;;6.15;;
47625;SDS011;33342;45.574;9.252;2023-03-23T05:34:26;12.30;;;6.25;;
47625;SDS011;33342;45.574;9.252;2023-03-23T05:36:57;9.07;;;5.57;;
47625;SDS011;33342;45.574;9.252;2023-03-23T05:39:41;9.10;;;6.00;;
47625;SDS011;33342;45.574;9.252;2023-03-23T05:42:31;13.55;;;7.75;;
47625;SDS011;33342;45.574;9.252;2023-03-23T05:45:10;12.07;;;6.75;;
47625;SDS011;33342;45.574;9.252;2023-03-23T05:47:38;12.32;;;7.13;;
47625;SDS011;33342;45.574;9.252;2023-03-23T05:50:10;13.18;;;6.40;;
47625;SDS011;33342;45.574;9.252;2023-03-23T05:52:37;11.43;;;7.22;;
47625;SDS011;33342;45.574;9.252;2023-03-23T05:55:07;11.57;;;7.38;;
47625;SDS011;33342;45.574;9.252;2023-03-23T05:57:35;12.60;;;9.43;;
47625;SDS011;33342;45.574;9.252;2023-03-23T06:00:12;13.73;;;9.23;;
47625;SDS011;33342;45.574;9.252;2023-03-23T06:02:40;10.98;;;7.30;;
47625;SDS011;33342;45.574;9.252;2023-03-23T06:05:14;11.30;;;6.55;;
47625;SDS011;33342;45.574;9.252;2023-03-23T06:07:44;10.82;;;7.20;;
47625;SDS011;33342;45.574;9.252;2023-03-23T06:10:11;11.18;;;6.65;;
47625;SDS011;33342;45.574;9.252;2023-03-23T06:12:38;13.35;;;9.35;;
47625;SDS011;33342;45.574;9.252;2023-03-23T06:15:11;10.85;;;6.90;;
47625;SDS011;33342;45.574;9.252;2023-03-23T06:17:59;12.50;;;7.03;;
47625;SDS011;33342;45.574;9.252;2023-03-23T06:20:35;12.05;;;7.57;;
47625;SDS011;33342;45.574;9.252;2023-03-23T06:23:13;14.20;;;8.85;;
47625;SDS011;33342;45.574;9.252;2023-03-23T06:25:40;12.13;;;9.05;;
47625;SDS011;33342;45.574;9.252;2023-03-23T06:28:08;12.52;;;7.35;;
47625;SDS011;33342;45.574;9.252;2023-03-23T06:30:38;10.23;;;7.10;;
47625;SDS011;33342;45.574;9.252;2023-03-23T06:33:05;12.00;;;6.78;;
47625;SDS011;33342;45.574;9.252;2023-03-23T06:35:57;12.55;;;7.47;;
47625;SDS011;33342;45.574;9.252;2023-03-23T06:38:56;9.63;;;6.82;;
47625;SDS011;33342;45.574;9.252;2023-03-23T06:41:31;13.90;;;9.83;;
47625;SDS011;33342;45.574;9.252;2023-03-23T06:43:58;10.88;;;7.13;;
47625;SDS011;33342;45.574;9.252;2023-03-23T06:46:29;12.85;;;9.65;;
47625;SDS011;33342;45.574;9.252;2023-03-23T06:48:55;12.45;;;9.15;;
47625;SDS011;33342;45.574;9.252;2023-03-23T06:51:29;16.50;;;7.30;;
47625;SDS011;33342;45.574;9.252;2023-03-23T06:53:56;14.23;;;9.55;;
47625;SDS011;33342;45.574;9.252;2023-03-23T06:56:24;13.40;;;9.18;;
47625;SDS011;33342;45.574;9.252;2023-03-23T06:58:51;13.70;;;7.30;;
47625;SDS011;33342;45.574;9.252;2023-03-23T07:01:18;11.35;;;7.20;;
47625;SDS011;33342;45.574;9.252;2023-03-23T07:03:54;13.80;;;9.00;;
47625;SDS011;33342;45.574;9.252;2023-03-23T07:06:29;12.13;;;6.43;;
47625;SDS011;33342;45.574;9.252;2023-03-23T07:08:59;9.93;;;5.97;;
47625;SDS011;33342;45.574;9.252;2023-03-23T07:11:27;12.93;;;7.25;;
47625;SDS011;33342;45.574;9.252;2023-03-23T07:13:55;10.82;;;6.47;;
47625;SDS011;33342;45.574;9.252;2023-03-23T07:16:22;11.50;;;8.15;;
47625;SDS011;33342;45.574;9.252;2023-03-23T07:18:50;13.25;;;5.85;;
47625;SDS011;33342;45.574;9.252;2023-03-23T07:21:16;11.50;;;5.32;;
47625;SDS011;33342;45.574;9.252;2023-03-23T07:23:42;12.27;;;7.88;;
47625;SDS011;33342;45.574;9.252;2023-03-23T07:26:13;8.75;;;6.70;;
47625;SDS011;33342;45.574;9.252;2023-03-23T07:28:46;10.43;;;5.80;;
47625;SDS011;33342;45.574;9.252;2023-03-23T07:31:30;12.32;;;6.63;;
47625;SDS011;33342;45.574;9.252;2023-03-23T07:33:57;9.95;;;5.43;;
47625;SDS011;33342;45.574;9.252;2023-03-23T07:36:30;7.97;;;5.15;;
47625;SDS011;33342;45.574;9.252;2023-03-23T07:38:57;9.80;;;6.07;;
47625;SDS011;33342;45.574;9.252;2023-03-23T07:41:24;7.18;;;4.53;;
47625;SDS011;33342;45.574;9.252;2023-03-23T07:43:52;9.38;;;5.75;;
47625;SDS011;33342;45.574;9.252;2023-03-23T07:46:33;10.50;;;5.60;;
47625;SDS011;33342;45.574;9.252;2023-03-23T07:49:22;7.72;;;4.35;;
47625;SDS011;33342;45.574;9.252;2023-03-23T07:51:59;8.93;;;5.68;;
47625;SDS011;33342;45.574;9.252;2023-03-23T07:54:28;9.73;;;3.58;;
47625;SDS011;33342;45.574;9.252;2023-03-23T07:57:12;8.68;;;5.00;;
47625;SDS011;33342;45.574;9.252;2023-03-23T07:59:42;9.15;;;4.60;;
47625;SDS011;33342;45.574;9.252;2023-03-23T08:02:08;9.85;;;3.95;;
47625;SDS011;33342;45.574;9.252;2023-03-23T08:04:41;9.30;;;4.80;;
47625;SDS011;33342;45.574;9.252;2023-03-23T08:07:07;10.70;;;4.90;;
47625;SDS011;33342;45.574;9.252;2023-03-23T08:09:46;10.68;;;5.43;;
47625;SDS011;33342;45.574;9.252;2023-03-23T08:12:32;9.35;;;5.60;;
47625;SDS011;33342;45.574;9.252;2023-03-23T08:15:18;9.43;;;6.20;;
47625;SDS011;33342;45.574;9.252;2023-03-23T08:18:04;8.15;;;5.45;;
47625;SDS011;33342;45.574;9.252;2023-03-23T08:20:56;10.32;;;4.75;;
47625;SDS011;33342;45.574;9.252;2023-03-23T08:23:30;7.05;;;4.30;;
47625;SDS011;33342;45.574;9.252;2023-03-23T08:26:24;9.68;;;5.78;;
47625;SDS011;33342;45.574;9.252;2023-03-23T08:29:24;7.43;;;4.63;;
47625;SDS011;33342;45.574;9.252;2023-03-23T08:31:50;6.57;;;4.10;;
47625;SDS011;33342;45.574;9.252;2023-03-23T08:34:25;10.40;;;5.97;;
47625;SDS011;33342;45.574;9.252;2023-03-23T08:36:59;8.97;;;5.03;;
47625;SDS011;33342;45.574;9.252;2023-03-23T08:39:52;10.75;;;4.97;;
47625;SDS011;33342;45.574;9.252;2023-03-23T08:42:42;10.95;;;4.95;;
47625;SDS011;33342;45.574;9.252;2023-03-23T08:45:27;10.63;;;5.00;;
47625;SDS011;33342;45.574;9.252;2023-03-23T08:48:11;8.73;;;4.85;;
47625;SDS011;33342;45.574;9.252;2023-03-23T08:50:49;11.05;;;4.88;;
47625;SDS011;33342;45.574;9.252;2023-03-23T08:53:35;13.07;;;4.80;;
47625;SDS011;33342;45.574;9.252;2023-03-23T08:56:28;10.88;;;5.80;;
47625;SDS011;33342;45.574;9.252;2023-03-23T08:59:24;9.10;;;5.82;;
47625;SDS011;33342;45.574;9.252;2023-03-23T09:02:00;9.75;;;4.55;;
47625;SDS011;33342;45.574;9.252;2023-03-23T09:04:36;13.80;;;5.05;;
47625;SDS011;33342;45.574;9.252;2023-03-23T09:07:28;9.63;;;5.00;;
47625;SDS011;33342;45.574;9.252;2023-03-23T09:09:54;12.00;;;5.13;;
47625;SDS011;33342;45.574;9.252;2023-03-23T09:12:19;10.25;;;5.32;;
47625;SDS011;33342;45.574;9.252;2023-03-23T09:14:45;12.63;;;7.38;;
47625;SDS011;33342;45.574;9.252;2023-03-23T09:17:12;9.82;;;5.07;;
47625;SDS011;33342;45.574;9.252;2023-03-23T09:19:38;10.98;;;6.53;;
47625;SDS011;33342;45.574;9.252;2023-03-23T09:22:03;11.07;;;5.22;;
47625;SDS011;33342;45.574;9.252;2023-03-23T09:24:30;11.77;;;5.65;;
47625;SDS011;33342;45.574;9.252;2023-03-23T09:26:56;10.93;;;6.47;;
47625;SDS011;33342;45.574;9.252;2023-03-23T09:29:24;10.18;;;6.95;;
47625;SDS011;33342;45.574;9.252;2023-03-23T09:31:52;10.43;;;7.78;;
47625;SDS011;33342;45.574;9.252;2023-03-23T09:34:18;10.30;;;6.25;;
47625;SDS011;33342;45.574;9.252;2023-03-23T09:36:45;11.10;;;7.97;;
47625;SDS011;33342;45.574;9.252;2023-03-23T09:39:12;12.45;;;6.10;;
47625;SDS011;33342;45.574;9.252;2023-03-23T09:41:48;12.07;;;8.82;;
47625;SDS011;33342;45.574;9.252;2023-03-23T09:44:22;12.63;;;9.07;;
47625;SDS011;33342;45.574;9.252;2023-03-23T09:52:17;11.32;;;8.27;;
47625;SDS011;33342;45.574;9.252;2023-03-23T09:54:51;13.00;;;8.00;;
47625;SDS011;33342;45.574;9.252;2023-03-23T09:57:22;12.40;;;8.95;;
47625;SDS011;33342;45.574;9.252;2023-03-23T09:59:57;15.80;;;9.35;;
47625;SDS011;33342;45.574;9.252;2023-03-23T10:05:38;19.40;;;10.77;;
47625;SDS011;33342;45.574;9.252;2023-03-23T10:08:16;13.88;;;9.57;;
47625;SDS011;33342;45.574;9.252;2023-03-23T10:16:11;11.77;;;8.60;;
47625;SDS011;33342;45.574;9.252;2023-03-23T10:21:25;17.13;;;12.13;;
47625;SDS011;33342;45.574;9.252;2023-03-23T10:23:59;20.02;;;8.55;;
47625;SDS011;33342;45.574;9.252;2023-03-23T10:28:57;19.80;;;10.90;;
47625;SDS011;33342;45.574;9.252;2023-03-23T10:31:37;15.05;;;10.93;;
47625;SDS011;33342;45.574;9.252;2023-03-23T10:34:10;13.68;;;12.00;;
47625;SDS011;33342;45.574;9.252;2023-03-23T10:37:26;14.50;;;11.93;;
47625;SDS011;33342;45.574;9.252;2023-03-23T10:39:47;13.98;;;11.27;;
47625;SDS011;33342;45.574;9.252;2023-03-23T10:42:33;15.23;;;10.52;;
47625;SDS011;33342;45.574;9.252;2023-03-23T10:45:11;15.80;;;10.25;;
47625;SDS011;33342;45.574;9.252;2023-03-23T10:47:42;13.85;;;11.43;;
47625;SDS011;33342;45.574;9.252;2023-03-23T10:50:17;14.93;;;11.68;;
47625;SDS011;33342;45.574;9.252;2023-03-23T10:52:48;14.63;;;12.30;;
47625;SDS011;33342;45.574;9.252;2023-03-23T10:55:18;16.40;;;12.98;;
47625;SDS011;33342;45.574;9.252;2023-03-23T10:58:08;18.02;;;13.32;;
47625;SDS011;33342;45.574;9.252;2023-03-23T11:00:41;15.63;;;12.50;;
47625;SDS011;33342;45.574;9.252;2023-03-23T11:08:12;18.70;;;13.55;;
47625;SDS011;33342;45.574;9.252;2023-03-23T11:10:41;16.15;;;12.43;;
47625;SDS011;33342;45.574;9.252;2023-03-23T11:13:14;18.50;;;13.23;;
47625;SDS011;33342;45.574;9.252;2023-03-23T11:15:43;16.42;;;13.20;;
47625;SDS011;33342;45.574;9.252;2023-03-23T11:18:13;17.80;;;13.68;;
47625;SDS011;33342;45.574;9.252;2023-03-23T11:20:50;17.98;;;13.82;;
47625;SDS011;33342;45.574;9.252;2023-03-23T11:23:21;22.02;;;13.75;;
47625;SDS011;33342;45.574;9.252;2023-03-23T11:26:02;19.15;;;14.23;;
47625;SDS011;33342;45.574;9.252;2023-03-23T11:28:37;18.30;;;14.00;;
47625;SDS011;33342;45.574;9.252;2023-03-23T11:31:20;21.05;;;14.35;;
47625;SDS011;33342;45.574;9.252;2023-03-23T11:36:32;19.67;;;15.02;;
47625;SDS011;33342;45.574;9.252;2023-03-23T11:41:31;21.63;;;14.57;;
47625;SDS011;33342;45.574;9.252;2023-03-23T11:44:01;18.63;;;15.75;;
47625;SDS011;33342;45.574;9.252;2023-03-23T11:46:34;19.90;;;16.38;;
47625;SDS011;33342;45.574;9.252;2023-03-23T11:49:35;19.90;;;15.68;;
47625;SDS011;33342;45.574;9.252;2023-03-23T11:55:09;17.17;;;15.35;;
47625;SDS011;33342;45.574;9.252;2023-03-23T11:57:46;19.13;;;14.98;;
47625;SDS011;33342;45.574;9.252;2023-03-23T12:00:13;19.60;;;14.80;;
47625;SDS011;33342;45.574;9.252;2023-03-23T12:02:57;18.05;;;14.52;;
47625;SDS011;33342;45.574;9.252;2023-03-23T12:06:03;19.77;;;14.48;;
47625;SDS011;33342;45.574;9.252;2023-03-23T12:11:13;17.50;;;13.60;;
47625;SDS011;33342;45.574;9.252;2023-03-23T12:17:11;19.17;;;14.27;;
47625;SDS011;33342;45.574;9.252;2023-03-23T12:19:44;16.75;;;13.68;;
47625;SDS011;33342;45.574;9.252;2023-03-23T12:25:33;16.27;;;13.55;;
47625;SDS011;33342;45.574;9.252;2023-03-23T12:33:33;20.92;;;13.95;;
47625;SDS011;33342;45.574;9.252;2023-03-23T12:39:15;19.35;;;14.32;;
47625;SDS011;33342;45.574;9.252;2023-03-23T12:44:13;17.85;;;13.80;;
47625;SDS011;33342;45.574;9.252;2023-03-23T12:47:14;18.88;;;13.85;;
47625;SDS011;33342;45.574;9.252;2023-03-23T12:52:55;18.55;;;12.80;;
47625;SDS011;33342;45.574;9.252;2023-03-23T12:58:08;16.92;;;13.43;;
47625;SDS011;33342;45.574;9.252;2023-03-23T13:00:52;17.45;;;13.68;;
47625;SDS011;33342;45.574;9.252;2023-03-23T13:03:58;17.25;;;13.68;;
47625;SDS011;33342;45.574;9.252;2023-03-23T13:11:32;18.10;;;14.05;;
47625;SDS011;33342;45.574;9.252;2023-03-23T13:22:35;17.75;;;14.10;;
47625;SDS011;33342;45.574;9.252;2023-03-23T13:25:07;17.35;;;12.60;;
47625;SDS011;33342;45.574;9.252;2023-03-23T13:27:39;17.60;;;14.57;;
47625;SDS011;33342;45.574;9.252;2023-03-23T13:30:05;17.33;;;13.13;;
47625;SDS011;33342;45.574;9.252;2023-03-23T13:32:48;20.52;;;14.38;;
47625;SDS011;33342;45.574;9.252;2023-03-23T13:35:16;19.75;;;13.82;;
47625;SDS011;33342;45.574;9.252;2023-03-23T13:37:46;16.30;;;11.57;;
47625;SDS011;33342;45.574;9.252;2023-03-23T13:42:56;16.17;;;13.10;;
47625;SDS011;33342;45.574;9.252;2023-03-23T13:50:44;18.33;;;12.88;;
47625;SDS011;33342;45.574;9.252;2023-03-23T13:53:26;16.58;;;13.13;;
47625;SDS011;33342;45.574;9.252;2023-03-23T13:56:17;16.98;;;14.25;;
47625;SDS011;33342;45.574;9.252;2023-03-23T13:59:06;17.58;;;12.48;;
47625;SDS011;33342;45.574;9.252;2023-03-23T14:01:41;15.88;;;12.30;;
47625;SDS011;33342;45.574;9.252;2023-03-23T14:04:13;14.63;;;11.95;;
47625;SDS011;33342;45.574;9.252;2023-03-23T14:09:23;15.90;;;12.93;;
47625;SDS011;33342;45.574;9.252;2023-03-23T14:11:59;17.13;;;11.32;;
47625;SDS011;33342;45.574;9.252;2023-03-23T14:14:47;14.50;;;10.82;;
47625;SDS011;33342;45.574;9.252;2023-03-23T14:17:21;14.77;;;9.82;;
47625;SDS011;33342;45.574;9.252;2023-03-23T14:19:50;13.85;;;9.82;;
47625;SDS011;33342;45.574;9.252;2023-03-23T14:22:23;13.93;;;10.95;;
47625;SDS011;33342;45.574;9.252;2023-03-23T14:25:00;13.77;;;11.65;;
47625;SDS011;33342;45.574;9.252;2023-03-23T14:27:34;13.07;;;10.75;;
47625;SDS011;33342;45.574;9.252;2023-03-23T14:30:01;14.23;;;10.70;;
47625;SDS011;33342;45.574;9.252;2023-03-23T14:32:32;15.88;;;10.75;;
47625;SDS011;33342;45.574;9.252;2023-03-23T14:35:00;15.15;;;11.65;;
47625;SDS011;33342;45.574;9.252;2023-03-23T14:37:32;13.15;;;10.23;;
47625;SDS011;33342;45.574;9.252;2023-03-23T14:40:00;12.07;;;9.35;;
47625;SDS011;33342;45.574;9.252;2023-03-23T14:42:30;13.52;;;9.40;;
47625;SDS011;33342;45.574;9.252;2023-03-23T14:44:59;11.80;;;9.43;;
47625;SDS011;33342;45.574;9.252;2023-03-23T14:49:55;15.07;;;9.95;;
47625;SDS011;33342;45.574;9.252;2023-03-23T14:52:23;14.57;;;9.18;;
47625;SDS011;33342;45.574;9.252;2023-03-23T14:54:52;15.25;;;9.23;;
47625;SDS011;33342;45.574;9.252;2023-03-23T14:57:19;19.25;;;10.82;;
47625;SDS011;33342;45.574;9.252;2023-03-23T14:59:52;15.98;;;9.73;;
47625;SDS011;33342;45.574;9.252;2023-03-23T15:02:23;12.45;;;9.85;;
47625;SDS011;33342;45.574;9.252;2023-03-23T15:04:56;13.63;;;9.70;;
47625;SDS011;33342;45.574;9.252;2023-03-23T15:07:27;12.73;;;10.07;;
47625;SDS011;33342;45.574;9.252;2023-03-23T15:09:59;16.15;;;10.95;;
47625;SDS011;33342;45.574;9.252;2023-03-23T15:12:27;22.95;;;14.82;;
47625;SDS011;33342;45.574;9.252;2023-03-23T15:15:03;13.95;;;9.90;;
47625;SDS011;33342;45.574;9.252;2023-03-23T15:17:36;12.85;;;8.80;;
47625;SDS011;33342;45.574;9.252;2023-03-23T15:20:07;12.50;;;9.57;;
47625;SDS011;33342;45.574;9.252;2023-03-23T15:22:46;12.95;;;8.98;;
47625;SDS011;33342;45.574;9.252;2023-03-23T15:25:21;13.80;;;9.60;;
47625;SDS011;33342;45.574;9.252;2023-03-23T15:27:57;12.23;;;10.13;;
47625;SDS011;33342;45.574;9.252;2023-03-23T15:30:33;16.20;;;9.98;;
47625;SDS011;33342;45.574;9.252;2023-03-23T15:33:11;13.02;;;9.95;;
47625;SDS011;33342;45.574;9.252;2023-03-23T15:35:38;12.48;;;9.05;;
47625;SDS011;33342;45.574;9.252;2023-03-23T15:38:15;11.27;;;7.93;;
47625;SDS011;33342;45.574;9.252;2023-03-23T15:40:48;15.23;;;11.30;;
47625;SDS011;33342;45.574;9.252;2023-03-23T15:43:22;13.30;;;8.95;;
47625;SDS011;33342;45.574;9.252;2023-03-23T15:45:56;15.40;;;10.75;;
47625;SDS011;33342;45.574;9.252;2023-03-23T15:48:31;13.40;;;9.85;;
47625;SDS011;33342;45.574;9.252;2023-03-23T15:51:10;14.40;;;9.52;;
47625;SDS011;33342;45.574;9.252;2023-03-23T15:53:38;15.35;;;9.43;;
47625;SDS011;33342;45.574;9.252;2023-03-23T15:56:05;13.65;;;9.93;;
47625;SDS011;33342;45.574;9.252;2023-03-23T15:58:33;12.48;;;9.68;;
47625;SDS011;33342;45.574;9.252;2023-03-23T16:01:03;13.98;;;9.13;;
47625;SDS011;33342;45.574;9.252;2023-03-23T16:06:11;12.82;;;8.50;;
47625;SDS011;33342;45.574;9.252;2023-03-23T16:08:51;11.88;;;8.63;;
47625;SDS011;33342;45.574;9.252;2023-03-23T16:11:21;16.23;;;10.20;;
47625;SDS011;33342;45.574;9.252;2023-03-23T16:13:49;12.18;;;9.00;;
47625;SDS011;33342;45.574;9.252;2023-03-23T16:16:24;12.43;;;8.25;;
47625;SDS011;33342;45.574;9.252;2023-03-23T16:18:53;13.25;;;9.00;;
47625;SDS011;33342;45.574;9.252;2023-03-23T16:21:21;12.45;;;9.02;;
47625;SDS011;33342;45.574;9.252;2023-03-23T16:23:49;11.68;;;8.40;;
47625;SDS011;33342;45.574;9.252;2023-03-23T16:26:16;13.75;;;8.40;;
47625;SDS011;33342;45.574;9.252;2023-03-23T16:28:44;13.68;;;8.80;;
47625;SDS011;33342;45.574;9.252;2023-03-23T16:31:12;13.80;;;9.40;;
47625;SDS011;33342;45.574;9.252;2023-03-23T16:33:39;14.52;;;10.00;;
47625;SDS011;33342;45.574;9.252;2023-03-23T16:36:09;17.15;;;8.98;;
47625;SDS011;33342;45.574;9.252;2023-03-23T16:38:38;12.93;;;8.95;;
47625;SDS011;33342;45.574;9.252;2023-03-23T16:41:17;12.35;;;8.73;;
47625;SDS011;33342;45.574;9.252;2023-03-23T16:43:44;13.20;;;9.23;;
47625;SDS011;33342;45.574;9.252;2023-03-23T16:46:12;12.40;;;9.00;;
47625;SDS011;33342;45.574;9.252;2023-03-23T16:48:40;12.10;;;8.02;;
47625;SDS011;33342;45.574;9.252;2023-03-23T16:51:07;10.23;;;7.70;;
47625;SDS011;33342;45.574;9.252;2023-03-23T16:53:35;15.70;;;8.13;;